sensor_id;sensor_type;location;lat;lon;timestamp;P1;durP1;ratioP1;P2;durP2;ratioP2
25249;SDS011;13201;51.148;13.738;2023-03-20T00:00:24;4.07;;;2.72;;
25249;SDS011;13201;51.148;13.738;2023-03-20T00:02:59;3.85;;;2.70;;
25249;SDS011;13201;51.148;13.738;2023-03-20T00:05:26;6.78;;;2.50;;
25249;SDS011;13201;51.148;13.738;2023-03-20T00:07:54;4.63;;;2.65;;
25249;SDS011;13201;51.148;13.738;2023-03-20T00:10:21;3.40;;;2.35;;
25249;SDS011;13201;51.148;13.738;2023-03-20T00:12:53;4.93;;;2.70;;
25249;SDS011;13201;51.148;13.738;2023-03-20T00:15:23;4.82;;;2.80;;
25249;SDS011;13201;51.148;13.738;2023-03-20T00:17:58;5.10;;;2.92;;
25249;SDS011;13201;51.148;13.738;2023-03-20T00:20:24;5.30;;;2.60;;
25249;SDS011;13201;51.148;13.738;2023-03-20T00:22:50;3.27;;;2.70;;
25249;SDS011;13201;51.148;13.738;2023-03-20T00:25:17;4.17;;;2.60;;
25249;SDS011;13201;51.148;13.738;2023-03-20T00:27:46;3.83;;;2.10;;
25249;SDS011;13201;51.148;13.738;2023-03-20T00:30:16;3.33;;;2.40;;
25249;SDS011;13201;51.148;13.738;2023-03-20T00:33:04;5.10;;;2.90;;
25249;SDS011;13201;51.148;13.738;2023-03-20T00:35:34;4.35;;;2.90;;
25249;SDS011;13201;51.148;13.738;2023-03-20T00:37:59;6.05;;;2.65;;
25249;SDS011;13201;51.148;13.738;2023-03-20T00:40:29;3.45;;;2.42;;
25249;SDS011;13201;51.148;13.738;2023-03-20T00:42:59;4.22;;;2.70;;
25249;SDS011;13201;51.148;13.738;2023-03-20T00:45:27;5.10;;;2.60;;
25249;SDS011;13201;51.148;13.738;2023-03-20T00:47:54;3.05;;;2.22;;
25249;SDS011;13201;51.148;13.738;2023-03-20T00:50:28;3.30;;;2.28;;
25249;SDS011;13201;51.148;13.738;2023-03-20T00:52:55;3.80;;;2.60;;
25249;SDS011;13201;51.148;13.738;2023-03-20T00:55:22;6.05;;;2.25;;
25249;SDS011;13201;51.148;13.738;2023-03-20T00:57:54;3.95;;;2.55;;
25249;SDS011;13201;51.148;13.738;2023-03-20T01:02:46;4.33;;;2.53;;
25249;SDS011;13201;51.148;13.738;2023-03-20T01:05:12;4.43;;;2.33;;
25249;SDS011;13201;51.148;13.738;2023-03-20T01:30:51;7.55;;;3.42;;
25249;SDS011;13201;51.148;13.738;2023-03-20T01:33:18;5.78;;;2.88;;
25249;SDS011;13201;51.148;13.738;2023-03-20T01:35:46;4.05;;;2.72;;
25249;SDS011;13201;51.148;13.738;2023-03-20T01:38:14;4.85;;;2.65;;
25249;SDS011;13201;51.148;13.738;2023-03-20T01:43:41;4.53;;;2.58;;
25249;SDS011;13201;51.148;13.738;2023-03-20T01:51:14;5.00;;;2.72;;
25249;SDS011;13201;51.148;13.738;2023-03-20T01:53:48;3.45;;;2.40;;
25249;SDS011;13201;51.148;13.738;2023-03-20T01:56:17;2.97;;;2.33;;
25249;SDS011;13201;51.148;13.738;2023-03-20T01:58:46;3.90;;;2.58;;
25249;SDS011;13201;51.148;13.738;2023-03-20T02:01:16;6.55;;;2.58;;
25249;SDS011;13201;51.148;13.738;2023-03-20T02:03:43;4.90;;;2.30;;
25249;SDS011;13201;51.148;13.738;2023-03-20T02:06:12;4.03;;;2.55;;
25249;SDS011;13201;51.148;13.738;2023-03-20T02:08:42;6.72;;;2.55;;
25249;SDS011;13201;51.148;13.738;2023-03-20T02:11:12;2.78;;;2.10;;
25249;SDS011;13201;51.148;13.738;2023-03-20T02:13:41;3.10;;;2.10;;
25249;SDS011;13201;51.148;13.738;2023-03-20T02:16:09;6.43;;;2.63;;
25249;SDS011;13201;51.148;13.738;2023-03-20T02:18:40;3.70;;;2.17;;
25249;SDS011;13201;51.148;13.738;2023-03-20T02:31:58;6.65;;;2.40;;
25249;SDS011;13201;51.148;13.738;2023-03-20T02:43:18;4.18;;;2.20;;
25249;SDS011;13201;51.148;13.738;2023-03-20T02:49:09;2.78;;;2.05;;
25249;SDS011;13201;51.148;13.738;2023-03-20T02:51:59;5.43;;;2.38;;
25249;SDS011;13201;51.148;13.738;2023-03-20T02:54:43;4.45;;;2.40;;
25249;SDS011;13201;51.148;13.738;2023-03-20T02:57:39;3.50;;;2.53;;
25249;SDS011;13201;51.148;13.738;2023-03-20T03:03:11;4.38;;;2.53;;
25249;SDS011;13201;51.148;13.738;2023-03-20T03:08:37;4.35;;;2.20;;
25249;SDS011;13201;51.148;13.738;2023-03-20T03:11:08;3.30;;;2.28;;
25249;SDS011;13201;51.148;13.738;2023-03-20T03:13:50;3.27;;;2.13;;
25249;SDS011;13201;51.148;13.738;2023-03-20T03:16:20;3.13;;;2.13;;
25249;SDS011;13201;51.148;13.738;2023-03-20T03:18:53;6.10;;;2.22;;
25249;SDS011;13201;51.148;13.738;2023-03-20T03:21:27;3.80;;;2.23;;
25249;SDS011;13201;51.148;13.738;2023-03-20T03:26:21;5.27;;;2.57;;
25249;SDS011;13201;51.148;13.738;2023-03-20T03:28:51;4.55;;;2.22;;
25249;SDS011;13201;51.148;13.738;2023-03-20T03:31:21;3.92;;;2.20;;
25249;SDS011;13201;51.148;13.738;2023-03-20T03:33:49;3.05;;;2.15;;
25249;SDS011;13201;51.148;13.738;2023-03-20T03:38:58;4.05;;;2.45;;
25249;SDS011;13201;51.148;13.738;2023-03-20T03:44:58;3.50;;;2.00;;
25249;SDS011;13201;51.148;13.738;2023-03-20T03:52:44;3.22;;;2.08;;
25249;SDS011;13201;51.148;13.738;2023-03-20T03:55:26;2.67;;;2.20;;
25249;SDS011;13201;51.148;13.738;2023-03-20T03:58:30;4.43;;;2.40;;
25249;SDS011;13201;51.148;13.738;2023-03-20T04:00:53;3.33;;;2.22;;
25249;SDS011;13201;51.148;13.738;2023-03-20T04:03:22;3.17;;;2.15;;
25249;SDS011;13201;51.148;13.738;2023-03-20T04:05:53;3.03;;;1.75;;
25249;SDS011;13201;51.148;13.738;2023-03-20T04:08:22;3.92;;;2.40;;
25249;SDS011;13201;51.148;13.738;2023-03-20T04:10:48;4.13;;;2.15;;
25249;SDS011;13201;51.148;13.738;2023-03-20T04:13:13;3.22;;;2.10;;
25249;SDS011;13201;51.148;13.738;2023-03-20T04:15:40;5.68;;;2.22;;
25249;SDS011;13201;51.148;13.738;2023-03-20T04:18:06;2.93;;;2.00;;
25249;SDS011;13201;51.148;13.738;2023-03-20T04:20:33;3.72;;;2.10;;
25249;SDS011;13201;51.148;13.738;2023-03-20T04:22:59;3.30;;;2.10;;
25249;SDS011;13201;51.148;13.738;2023-03-20T04:25:25;3.08;;;2.35;;
25249;SDS011;13201;51.148;13.738;2023-03-20T04:27:51;3.33;;;2.10;;
25249;SDS011;13201;51.148;13.738;2023-03-20T04:30:17;2.93;;;2.30;;
25249;SDS011;13201;51.148;13.738;2023-03-20T04:32:43;3.40;;;2.00;;
25249;SDS011;13201;51.148;13.738;2023-03-20T04:35:09;3.25;;;2.00;;
25249;SDS011;13201;51.148;13.738;2023-03-20T04:37:35;3.60;;;2.33;;
25249;SDS011;13201;51.148;13.738;2023-03-20T04:40:01;3.03;;;2.28;;
25249;SDS011;13201;51.148;13.738;2023-03-20T04:42:27;4.18;;;2.28;;
25249;SDS011;13201;51.148;13.738;2023-03-20T04:44:53;4.55;;;2.30;;
25249;SDS011;13201;51.148;13.738;2023-03-20T04:47:18;2.70;;;1.98;;
25249;SDS011;13201;51.148;13.738;2023-03-20T04:49:44;3.65;;;2.22;;
25249;SDS011;13201;51.148;13.738;2023-03-20T04:52:10;4.80;;;1.88;;
25249;SDS011;13201;51.148;13.738;2023-03-20T04:54:35;3.05;;;1.90;;
25249;SDS011;13201;51.148;13.738;2023-03-20T04:57:01;2.45;;;2.13;;
25249;SDS011;13201;51.148;13.738;2023-03-20T04:59:27;3.00;;;2.22;;
25249;SDS011;13201;51.148;13.738;2023-03-20T05:01:52;3.40;;;2.15;;
25249;SDS011;13201;51.148;13.738;2023-03-20T05:04:18;2.17;;;1.92;;
25249;SDS011;13201;51.148;13.738;2023-03-20T05:06:44;4.13;;;2.28;;
25249;SDS011;13201;51.148;13.738;2023-03-20T05:09:13;3.75;;;2.17;;
25249;SDS011;13201;51.148;13.738;2023-03-20T05:11:40;5.05;;;2.28;;
25249;SDS011;13201;51.148;13.738;2023-03-20T05:14:05;3.70;;;2.38;;
25249;SDS011;13201;51.148;13.738;2023-03-20T05:16:31;5.05;;;2.20;;
25249;SDS011;13201;51.148;13.738;2023-03-20T05:18:57;4.15;;;2.50;;
25249;SDS011;13201;51.148;13.738;2023-03-20T05:21:23;4.63;;;2.40;;
25249;SDS011;13201;51.148;13.738;2023-03-20T05:23:48;3.42;;;2.50;;
25249;SDS011;13201;51.148;13.738;2023-03-20T05:26:14;4.40;;;2.28;;
25249;SDS011;13201;51.148;13.738;2023-03-20T05:28:40;3.95;;;2.47;;
25249;SDS011;13201;51.148;13.738;2023-03-20T05:31:05;2.28;;;1.92;;
25249;SDS011;13201;51.148;13.738;2023-03-20T05:33:32;3.33;;;2.30;;
25249;SDS011;13201;51.148;13.738;2023-03-20T05:35:57;4.50;;;2.00;;
25249;SDS011;13201;51.148;13.738;2023-03-20T05:38:23;3.65;;;2.17;;
25249;SDS011;13201;51.148;13.738;2023-03-20T05:40:54;4.32;;;2.40;;
25249;SDS011;13201;51.148;13.738;2023-03-20T05:43:23;3.03;;;2.00;;
25249;SDS011;13201;51.148;13.738;2023-03-20T05:45:49;4.60;;;2.40;;
25249;SDS011;13201;51.148;13.738;2023-03-20T05:48:15;3.00;;;2.10;;
25249;SDS011;13201;51.148;13.738;2023-03-20T05:50:41;5.30;;;2.35;;
25249;SDS011;13201;51.148;13.738;2023-03-20T05:53:06;2.85;;;2.13;;
25249;SDS011;13201;51.148;13.738;2023-03-20T05:55:33;3.42;;;1.98;;
25249;SDS011;13201;51.148;13.738;2023-03-20T05:57:58;3.95;;;2.15;;
25249;SDS011;13201;51.148;13.738;2023-03-20T06:00:24;3.03;;;2.08;;
25249;SDS011;13201;51.148;13.738;2023-03-20T06:02:51;3.70;;;2.20;;
25249;SDS011;13201;51.148;13.738;2023-03-20T06:05:16;3.88;;;2.30;;
25249;SDS011;13201;51.148;13.738;2023-03-20T06:07:42;4.20;;;2.13;;
25249;SDS011;13201;51.148;13.738;2023-03-20T06:10:08;3.38;;;2.33;;
25249;SDS011;13201;51.148;13.738;2023-03-20T06:12:34;5.30;;;2.20;;
25249;SDS011;13201;51.148;13.738;2023-03-20T06:15:00;3.72;;;2.10;;
25249;SDS011;13201;51.148;13.738;2023-03-20T06:17:26;3.00;;;2.25;;
25249;SDS011;13201;51.148;13.738;2023-03-20T06:19:52;4.65;;;2.22;;
25249;SDS011;13201;51.148;13.738;2023-03-20T06:22:17;4.10;;;2.30;;
25249;SDS011;13201;51.148;13.738;2023-03-20T06:24:43;4.30;;;2.10;;
25249;SDS011;13201;51.148;13.738;2023-03-20T06:27:09;2.97;;;2.17;;
25249;SDS011;13201;51.148;13.738;2023-03-20T06:29:34;5.00;;;2.42;;
25249;SDS011;13201;51.148;13.738;2023-03-20T06:32:00;4.68;;;2.40;;
25249;SDS011;13201;51.148;13.738;2023-03-20T06:34:26;2.78;;;2.30;;
25249;SDS011;13201;51.148;13.738;2023-03-20T06:36:52;3.85;;;2.38;;
25249;SDS011;13201;51.148;13.738;2023-03-20T06:39:17;5.63;;;2.38;;
25249;SDS011;13201;51.148;13.738;2023-03-20T06:41:43;3.17;;;2.28;;
25249;SDS011;13201;51.148;13.738;2023-03-20T06:44:09;3.65;;;2.22;;
25249;SDS011;13201;51.148;13.738;2023-03-20T06:46:35;4.32;;;2.38;;
25249;SDS011;13201;51.148;13.738;2023-03-20T06:49:00;4.30;;;2.42;;
25249;SDS011;13201;51.148;13.738;2023-03-20T06:51:26;5.50;;;2.33;;
25249;SDS011;13201;51.148;13.738;2023-03-20T06:53:52;3.33;;;2.40;;
25249;SDS011;13201;51.148;13.738;2023-03-20T06:56:17;2.88;;;2.13;;
25249;SDS011;13201;51.148;13.738;2023-03-20T06:58:43;4.93;;;2.53;;
25249;SDS011;13201;51.148;13.738;2023-03-20T07:01:13;3.47;;;2.60;;
25249;SDS011;13201;51.148;13.738;2023-03-20T07:03:41;5.25;;;2.90;;
25249;SDS011;13201;51.148;13.738;2023-03-20T07:06:07;6.50;;;2.85;;
25249;SDS011;13201;51.148;13.738;2023-03-20T07:08:35;3.80;;;2.90;;
25249;SDS011;13201;51.148;13.738;2023-03-20T07:11:01;3.55;;;2.20;;
25249;SDS011;13201;51.148;13.738;2023-03-20T07:15:54;2.70;;;1.77;;
25249;SDS011;13201;51.148;13.738;2023-03-20T07:18:21;3.65;;;2.30;;
25249;SDS011;13201;51.148;13.738;2023-03-20T07:20:46;6.95;;;2.38;;
25249;SDS011;13201;51.148;13.738;2023-03-20T07:23:12;7.07;;;2.38;;
25249;SDS011;13201;51.148;13.738;2023-03-20T07:25:38;3.10;;;2.40;;
25249;SDS011;13201;51.148;13.738;2023-03-20T07:28:04;4.13;;;2.58;;
25249;SDS011;13201;51.148;13.738;2023-03-20T07:30:31;6.07;;;2.53;;
25249;SDS011;13201;51.148;13.738;2023-03-20T07:32:57;4.97;;;2.80;;
25249;SDS011;13201;51.148;13.738;2023-03-20T07:35:22;4.03;;;2.58;;
25249;SDS011;13201;51.148;13.738;2023-03-20T07:37:48;3.42;;;2.53;;
25249;SDS011;13201;51.148;13.738;2023-03-20T07:40:14;3.88;;;2.72;;
25249;SDS011;13201;51.148;13.738;2023-03-20T07:42:40;3.42;;;2.53;;
25249;SDS011;13201;51.148;13.738;2023-03-20T07:45:06;3.65;;;2.80;;
25249;SDS011;13201;51.148;13.738;2023-03-20T07:47:33;4.40;;;2.42;;
25249;SDS011;13201;51.148;13.738;2023-03-20T07:49:59;5.47;;;3.05;;
25249;SDS011;13201;51.148;13.738;2023-03-20T07:52:25;3.75;;;2.75;;
25249;SDS011;13201;51.148;13.738;2023-03-20T07:54:51;3.92;;;2.60;;
25249;SDS011;13201;51.148;13.738;2023-03-20T07:57:16;4.30;;;2.97;;
25249;SDS011;13201;51.148;13.738;2023-03-20T07:59:42;4.20;;;3.03;;
25249;SDS011;13201;51.148;13.738;2023-03-20T08:02:11;6.57;;;2.83;;
25249;SDS011;13201;51.148;13.738;2023-03-20T08:04:40;6.13;;;3.28;;
25249;SDS011;13201;51.148;13.738;2023-03-20T08:07:06;6.80;;;3.00;;
25249;SDS011;13201;51.148;13.738;2023-03-20T08:09:31;5.45;;;3.03;;
25249;SDS011;13201;51.148;13.738;2023-03-20T08:11:57;5.35;;;3.25;;
25249;SDS011;13201;51.148;13.738;2023-03-20T08:14:23;4.57;;;3.20;;
25249;SDS011;13201;51.148;13.738;2023-03-20T08:16:48;7.32;;;3.38;;
25249;SDS011;13201;51.148;13.738;2023-03-20T08:19:14;4.95;;;3.22;;
25249;SDS011;13201;51.148;13.738;2023-03-20T08:21:40;4.97;;;3.10;;
25249;SDS011;13201;51.148;13.738;2023-03-20T08:24:06;5.32;;;3.05;;
25249;SDS011;13201;51.148;13.738;2023-03-20T08:26:32;5.57;;;3.22;;
25249;SDS011;13201;51.148;13.738;2023-03-20T08:28:58;6.97;;;2.90;;
25249;SDS011;13201;51.148;13.738;2023-03-20T08:31:24;5.65;;;3.03;;
25249;SDS011;13201;51.148;13.738;2023-03-20T08:33:50;7.85;;;4.10;;
25249;SDS011;13201;51.148;13.738;2023-03-20T08:36:16;6.13;;;4.22;;
25249;SDS011;13201;51.148;13.738;2023-03-20T08:38:44;11.40;;;4.63;;
25249;SDS011;13201;51.148;13.738;2023-03-20T08:41:11;9.50;;;4.70;;
25249;SDS011;13201;51.148;13.738;2023-03-20T08:43:37;8.18;;;4.57;;
25249;SDS011;13201;51.148;13.738;2023-03-20T08:46:03;10.90;;;5.35;;
25249;SDS011;13201;51.148;13.738;2023-03-20T08:48:29;7.78;;;5.25;;
25249;SDS011;13201;51.148;13.738;2023-03-20T08:50:55;9.68;;;4.97;;
25249;SDS011;13201;51.148;13.738;2023-03-20T08:53:21;8.35;;;4.97;;
25249;SDS011;13201;51.148;13.738;2023-03-20T08:55:50;8.65;;;5.07;;
25249;SDS011;13201;51.148;13.738;2023-03-20T08:58:16;10.07;;;5.35;;
25249;SDS011;13201;51.148;13.738;2023-03-20T09:00:43;11.05;;;6.07;;
25249;SDS011;13201;51.148;13.738;2023-03-20T09:03:12;10.20;;;5.63;;
25249;SDS011;13201;51.148;13.738;2023-03-20T09:05:40;9.43;;;5.10;;
25249;SDS011;13201;51.148;13.738;2023-03-20T09:08:08;8.95;;;5.28;;
25249;SDS011;13201;51.148;13.738;2023-03-20T09:10:33;11.98;;;6.47;;
25249;SDS011;13201;51.148;13.738;2023-03-20T09:12:59;13.65;;;7.20;;
25249;SDS011;13201;51.148;13.738;2023-03-20T09:15:26;12.17;;;6.60;;
25249;SDS011;13201;51.148;13.738;2023-03-20T09:17:51;15.55;;;7.45;;
25249;SDS011;13201;51.148;13.738;2023-03-20T09:20:17;15.10;;;7.28;;
25249;SDS011;13201;51.148;13.738;2023-03-20T09:22:43;17.17;;;9.02;;
25249;SDS011;13201;51.148;13.738;2023-03-20T09:25:09;18.27;;;9.80;;
25249;SDS011;13201;51.148;13.738;2023-03-20T09:27:36;24.42;;;11.18;;
25249;SDS011;13201;51.148;13.738;2023-03-20T09:30:03;22.02;;;11.27;;
25249;SDS011;13201;51.148;13.738;2023-03-20T09:32:31;21.23;;;10.73;;
25249;SDS011;13201;51.148;13.738;2023-03-20T09:34:57;23.00;;;10.60;;
25249;SDS011;13201;51.148;13.738;2023-03-20T09:37:23;18.60;;;9.65;;
25249;SDS011;13201;51.148;13.738;2023-03-20T09:39:49;18.48;;;9.48;;
25249;SDS011;13201;51.148;13.738;2023-03-20T09:53:08;20.15;;;10.40;;
25249;SDS011;13201;51.148;13.738;2023-03-20T09:55:41;18.95;;;10.15;;
25249;SDS011;13201;51.148;13.738;2023-03-20T09:58:17;21.33;;;11.13;;
25249;SDS011;13201;51.148;13.738;2023-03-20T10:00:54;22.70;;;11.45;;
25249;SDS011;13201;51.148;13.738;2023-03-20T10:03:41;22.30;;;11.43;;
25249;SDS011;13201;51.148;13.738;2023-03-20T10:06:12;25.67;;;12.90;;
25249;SDS011;13201;51.148;13.738;2023-03-20T10:08:40;23.42;;;12.05;;
25249;SDS011;13201;51.148;13.738;2023-03-20T10:21:43;30.45;;;13.05;;
25249;SDS011;13201;51.148;13.738;2023-03-20T10:24:15;26.75;;;13.07;;
25249;SDS011;13201;51.148;13.738;2023-03-20T10:26:48;30.38;;;14.20;;
25249;SDS011;13201;51.148;13.738;2023-03-20T10:34:58;24.33;;;12.25;;
25249;SDS011;13201;51.148;13.738;2023-03-20T10:40:19;20.90;;;11.70;;
25249;SDS011;13201;51.148;13.738;2023-03-20T10:42:54;18.98;;;11.45;;
25249;SDS011;13201;51.148;13.738;2023-03-20T10:47:51;20.05;;;10.75;;
25249;SDS011;13201;51.148;13.738;2023-03-20T10:50:20;16.60;;;9.57;;
25249;SDS011;13201;51.148;13.738;2023-03-20T10:52:51;18.52;;;10.05;;
25249;SDS011;13201;51.148;13.738;2023-03-20T10:55:24;18.10;;;10.02;;
25249;SDS011;13201;51.148;13.738;2023-03-20T10:58:02;16.33;;;9.65;;
25249;SDS011;13201;51.148;13.738;2023-03-20T11:00:41;17.38;;;10.18;;
25249;SDS011;13201;51.148;13.738;2023-03-20T11:03:08;18.27;;;9.67;;
25249;SDS011;13201;51.148;13.738;2023-03-20T11:08:11;17.90;;;9.00;;
25249;SDS011;13201;51.148;13.738;2023-03-20T11:10:39;17.77;;;9.77;;
25249;SDS011;13201;51.148;13.738;2023-03-20T11:13:21;20.25;;;10.35;;
25249;SDS011;13201;51.148;13.738;2023-03-20T11:16:48;19.27;;;10.02;;
25249;SDS011;13201;51.148;13.738;2023-03-20T11:19:03;17.83;;;9.48;;
25249;SDS011;13201;51.148;13.738;2023-03-20T11:21:35;18.52;;;10.30;;
25249;SDS011;13201;51.148;13.738;2023-03-20T11:24:53;21.48;;;10.82;;
25249;SDS011;13201;51.148;13.738;2023-03-20T11:27:06;23.27;;;11.27;;
25249;SDS011;13201;51.148;13.738;2023-03-20T11:29:42;26.95;;;11.80;;
25249;SDS011;13201;51.148;13.738;2023-03-20T11:34:43;26.17;;;13.05;;
25249;SDS011;13201;51.148;13.738;2023-03-20T11:37:24;28.13;;;13.77;;
25249;SDS011;13201;51.148;13.738;2023-03-20T11:40:00;25.85;;;12.90;;
25249;SDS011;13201;51.148;13.738;2023-03-20T11:42:35;26.58;;;13.27;;
25249;SDS011;13201;51.148;13.738;2023-03-20T11:45:05;28.08;;;14.70;;
25249;SDS011;13201;51.148;13.738;2023-03-20T11:47:40;31.52;;;14.45;;
25249;SDS011;13201;51.148;13.738;2023-03-20T11:50:12;33.13;;;14.98;;
25249;SDS011;13201;51.148;13.738;2023-03-20T11:52:55;28.30;;;13.50;;
25249;SDS011;13201;51.148;13.738;2023-03-20T11:55:28;27.97;;;13.50;;
25249;SDS011;13201;51.148;13.738;2023-03-20T11:58:00;30.55;;;14.48;;
25249;SDS011;13201;51.148;13.738;2023-03-20T12:00:37;29.63;;;13.88;;
25249;SDS011;13201;51.148;13.738;2023-03-20T12:06:19;33.03;;;14.48;;
25249;SDS011;13201;51.148;13.738;2023-03-20T12:08:54;30.45;;;13.55;;
25249;SDS011;13201;51.148;13.738;2023-03-20T12:14:21;27.35;;;12.95;;
25249;SDS011;13201;51.148;13.738;2023-03-20T12:16:51;29.07;;;14.33;;
25249;SDS011;13201;51.148;13.738;2023-03-20T12:19:25;30.58;;;14.32;;
25249;SDS011;13201;51.148;13.738;2023-03-20T12:24:48;29.23;;;13.90;;
25249;SDS011;13201;51.148;13.738;2023-03-20T12:27:39;31.33;;;14.82;;
25249;SDS011;13201;51.148;13.738;2023-03-20T12:37:54;27.40;;;14.18;;
25249;SDS011;13201;51.148;13.738;2023-03-20T12:40:19;26.67;;;14.38;;
25249;SDS011;13201;51.148;13.738;2023-03-20T12:43:21;29.63;;;14.50;;
25249;SDS011;13201;51.148;13.738;2023-03-20T12:45:56;29.92;;;14.75;;
25249;SDS011;13201;51.148;13.738;2023-03-20T12:48:39;28.80;;;14.27;;
25249;SDS011;13201;51.148;13.738;2023-03-20T12:52:09;29.25;;;14.68;;
25249;SDS011;13201;51.148;13.738;2023-03-20T13:03:08;33.78;;;16.63;;
25249;SDS011;13201;51.148;13.738;2023-03-20T13:05:45;31.73;;;14.95;;
25249;SDS011;13201;51.148;13.738;2023-03-20T13:14:04;34.67;;;15.63;;
25249;SDS011;13201;51.148;13.738;2023-03-20T13:20:51;29.98;;;14.25;;
25249;SDS011;13201;51.148;13.738;2023-03-20T13:25:32;29.85;;;14.07;;
25249;SDS011;13201;51.148;13.738;2023-03-20T13:36:21;26.10;;;13.23;;
25249;SDS011;13201;51.148;13.738;2023-03-20T13:38:52;25.73;;;13.43;;
25249;SDS011;13201;51.148;13.738;2023-03-20T13:41:23;29.10;;;13.90;;
25249;SDS011;13201;51.148;13.738;2023-03-20T13:43:55;28.30;;;14.68;;
25249;SDS011;13201;51.148;13.738;2023-03-20T13:46:25;30.23;;;14.45;;
25249;SDS011;13201;51.148;13.738;2023-03-20T13:49:00;29.13;;;13.93;;
25249;SDS011;13201;51.148;13.738;2023-03-20T13:51:45;28.65;;;13.75;;
25249;SDS011;13201;51.148;13.738;2023-03-20T13:54:30;30.55;;;14.55;;
25249;SDS011;13201;51.148;13.738;2023-03-20T14:05:38;27.00;;;14.07;;
25249;SDS011;13201;51.148;13.738;2023-03-20T14:11:05;29.45;;;13.30;;
25249;SDS011;13201;51.148;13.738;2023-03-20T14:13:35;28.65;;;13.85;;
25249;SDS011;13201;51.148;13.738;2023-03-20T14:16:02;27.83;;;14.27;;
25249;SDS011;13201;51.148;13.738;2023-03-20T14:18:31;30.15;;;14.45;;
25249;SDS011;13201;51.148;13.738;2023-03-20T14:20:58;28.25;;;15.43;;
25249;SDS011;13201;51.148;13.738;2023-03-20T14:23:32;29.92;;;14.13;;
25249;SDS011;13201;51.148;13.738;2023-03-20T14:26:05;31.73;;;13.98;;
25249;SDS011;13201;51.148;13.738;2023-03-20T14:28:44;27.70;;;13.55;;
25249;SDS011;13201;51.148;13.738;2023-03-20T14:33:52;26.52;;;13.82;;
25249;SDS011;13201;51.148;13.738;2023-03-20T14:36:29;29.45;;;14.00;;
25249;SDS011;13201;51.148;13.738;2023-03-20T14:45:14;32.28;;;14.75;;
25249;SDS011;13201;51.148;13.738;2023-03-20T14:47:34;28.25;;;14.45;;
25249;SDS011;13201;51.148;13.738;2023-03-20T15:01:00;30.98;;;14.98;;
25249;SDS011;13201;51.148;13.738;2023-03-20T15:03:28;34.25;;;15.13;;
25249;SDS011;13201;51.148;13.738;2023-03-20T15:06:04;27.67;;;14.35;;
25249;SDS011;13201;51.148;13.738;2023-03-20T15:08:32;29.90;;;14.52;;
25249;SDS011;13201;51.148;13.738;2023-03-20T15:11:04;29.73;;;14.82;;
25249;SDS011;13201;51.148;13.738;2023-03-20T15:13:33;31.45;;;14.13;;
25249;SDS011;13201;51.148;13.738;2023-03-20T15:16:05;32.53;;;15.15;;
25249;SDS011;13201;51.148;13.738;2023-03-20T15:18:46;30.55;;;14.43;;
25249;SDS011;13201;51.148;13.738;2023-03-20T15:21:16;29.65;;;13.80;;
25249;SDS011;13201;51.148;13.738;2023-03-20T15:23:45;30.48;;;14.38;;
25249;SDS011;13201;51.148;13.738;2023-03-20T15:26:15;29.05;;;14.50;;
25249;SDS011;13201;51.148;13.738;2023-03-20T15:28:44;29.17;;;14.75;;
25249;SDS011;13201;51.148;13.738;2023-03-20T15:31:24;30.15;;;14.70;;
25249;SDS011;13201;51.148;13.738;2023-03-20T15:33:54;28.70;;;14.00;;
25249;SDS011;13201;51.148;13.738;2023-03-20T15:36:21;31.38;;;15.63;;
25249;SDS011;13201;51.148;13.738;2023-03-20T15:38:51;34.42;;;16.13;;
25249;SDS011;13201;51.148;13.738;2023-03-20T15:41:24;28.85;;;14.82;;
25249;SDS011;13201;51.148;13.738;2023-03-20T15:46:40;32.95;;;15.63;;
25249;SDS011;13201;51.148;13.738;2023-03-20T15:49:18;31.98;;;15.05;;
25249;SDS011;13201;51.148;13.738;2023-03-20T15:51:45;28.90;;;14.80;;
25249;SDS011;13201;51.148;13.738;2023-03-20T15:54:14;31.40;;;15.77;;
25249;SDS011;13201;51.148;13.738;2023-03-20T15:56:45;32.40;;;16.13;;
25249;SDS011;13201;51.148;13.738;2023-03-20T15:59:15;31.25;;;16.05;;
25249;SDS011;13201;51.148;13.738;2023-03-20T16:01:44;34.53;;;15.75;;
25249;SDS011;13201;51.148;13.738;2023-03-20T16:04:12;37.85;;;16.90;;
25249;SDS011;13201;51.148;13.738;2023-03-20T16:06:45;32.05;;;16.65;;
25249;SDS011;13201;51.148;13.738;2023-03-20T16:09:13;37.92;;;19.13;;
25249;SDS011;13201;51.148;13.738;2023-03-20T16:11:42;39.28;;;19.45;;
25249;SDS011;13201;51.148;13.738;2023-03-20T16:14:12;33.92;;;16.40;;
25249;SDS011;13201;51.148;13.738;2023-03-20T16:16:41;34.60;;;16.08;;
25249;SDS011;13201;51.148;13.738;2023-03-20T16:19:09;37.63;;;17.17;;
25249;SDS011;13201;51.148;13.738;2023-03-20T16:21:37;37.17;;;17.83;;
25249;SDS011;13201;51.148;13.738;2023-03-20T16:24:08;38.03;;;18.42;;
25249;SDS011;13201;51.148;13.738;2023-03-20T16:26:41;37.30;;;17.63;;
25249;SDS011;13201;51.148;13.738;2023-03-20T16:29:10;36.00;;;17.52;;
25249;SDS011;13201;51.148;13.738;2023-03-20T16:31:40;37.08;;;18.13;;
25249;SDS011;13201;51.148;13.738;2023-03-20T16:34:19;32.28;;;16.55;;
25249;SDS011;13201;51.148;13.738;2023-03-20T16:36:51;39.83;;;17.50;;
25249;SDS011;13201;51.148;13.738;2023-03-20T16:39:20;41.95;;;18.23;;
25249;SDS011;13201;51.148;13.738;2023-03-20T16:41:51;40.17;;;18.58;;
25249;SDS011;13201;51.148;13.738;2023-03-20T16:44:35;43.20;;;17.90;;
25249;SDS011;13201;51.148;13.738;2023-03-20T16:47:20;40.33;;;17.83;;
25249;SDS011;13201;51.148;13.738;2023-03-20T16:50:08;35.45;;;17.25;;
25249;SDS011;13201;51.148;13.738;2023-03-20T16:52:55;41.17;;;18.13;;
25249;SDS011;13201;51.148;13.738;2023-03-20T16:55:23;39.92;;;18.15;;
25249;SDS011;13201;51.148;13.738;2023-03-20T16:58:04;40.25;;;17.85;;
25249;SDS011;13201;51.148;13.738;2023-03-20T17:00:32;40.22;;;17.52;;
25249;SDS011;13201;51.148;13.738;2023-03-20T17:03:13;42.97;;;18.52;;
25249;SDS011;13201;51.148;13.738;2023-03-20T17:05:58;41.45;;;18.48;;
25249;SDS011;13201;51.148;13.738;2023-03-20T17:08:37;35.47;;;16.95;;
25249;SDS011;13201;51.148;13.738;2023-03-20T17:11:12;39.83;;;18.70;;
25249;SDS011;13201;51.148;13.738;2023-03-20T17:13:41;38.72;;;18.40;;
25249;SDS011;13201;51.148;13.738;2023-03-20T17:16:12;41.67;;;18.13;;
25249;SDS011;13201;51.148;13.738;2023-03-20T17:18:43;39.20;;;17.67;;
25249;SDS011;13201;51.148;13.738;2023-03-20T17:21:22;37.97;;;17.60;;
25249;SDS011;13201;51.148;13.738;2023-03-20T17:23:48;39.88;;;17.88;;
25249;SDS011;13201;51.148;13.738;2023-03-20T17:26:14;36.72;;;17.00;;
25249;SDS011;13201;51.148;13.738;2023-03-20T17:28:39;36.78;;;16.77;;
25249;SDS011;13201;51.148;13.738;2023-03-20T17:31:07;33.53;;;15.98;;
25249;SDS011;13201;51.148;13.738;2023-03-20T17:33:43;34.50;;;16.27;;
25249;SDS011;13201;51.148;13.738;2023-03-20T17:36:14;31.75;;;14.82;;
25249;SDS011;13201;51.148;13.738;2023-03-20T17:38:43;30.13;;;13.77;;
25249;SDS011;13201;51.148;13.738;2023-03-20T17:41:11;26.52;;;12.45;;
25249;SDS011;13201;51.148;13.738;2023-03-20T17:43:39;23.77;;;11.45;;
25249;SDS011;13201;51.148;13.738;2023-03-20T17:46:05;20.85;;;11.05;;
25249;SDS011;13201;51.148;13.738;2023-03-20T17:48:31;21.88;;;10.68;;
25249;SDS011;13201;51.148;13.738;2023-03-20T17:50:56;24.63;;;10.70;;
25249;SDS011;13201;51.148;13.738;2023-03-20T17:53:23;20.48;;;9.98;;
25249;SDS011;13201;51.148;13.738;2023-03-20T17:55:52;18.08;;;9.45;;